Arches, Utah
Current Conditions -  °F | °C
As of 10:53 AM on Thursday 30 Oct 2014 (Local Time) from KCNY Reporting Station
Clear Clear  
Wind Chill: 55°   Ceiling: Unl
Heat Index: 55°   Visibility: 10mi
Dew Point: 19°   Wind: 0mph
Humidity: 24%   Direction: NA
Pressure: 30.33"   Gusts: NA
Location:  38.6903°N, 109.256°W
Report Text: KCNY 301653Z AUTO 00000KT 10SM CLR 13/M07 A3033 RMK AO2 SLP261 T01281072
Loading
Personal Weather Stations






























Interactive Weather Map
Tropical Storm Tracking
New forecast layout! Learn more

10-Day Weather Forecast

Advertisements
Track Severe Weather on mobile